Time;durP1;ratioP1;P1;durP2;ratioP2;P2;SDS_P1;SDS_P2;PMS_P1;PMS_P2;Temp;Humidity;BMP_temperature;BMP_pressure;BME280_temperature;BME280_humidity;BME280_pressure;Samples;Min_cycle;Max_cycle;Signal;HPM_P1;HPM_P2
2022/08/11 00:02:12;;;;;;;7.37;5.90;;;;;;;13.36;66.31;101069.73;2081127;83;21063;-69
2022/08/11 00:05:18;;;;;;;9.93;5.53;;;;;;;13.36;66.09;101066.56;2084027;84;21565;-67
2022/08/11 00:08:43;;;;;;;11.10;6.45;;;;;;;13.39;66.04;101066.75;2109141;83;21093;-69
2022/08/11 00:11:49;;;;;;;14.40;6.62;;;;;;;13.34;66.37;101059.22;2107885;83;21514;-69
2022/08/11 00:14:59;;;;;;;10.58;6.30;;;;;;;13.33;66.26;101069.56;2090749;83;21064;-68
2022/08/11 00:18:01;;;;;;;;;;;;;;;13.30;66.31;101065.89;2113027;83;21050;-67
2022/08/11 00:21:02;;;;;;;7.10;5.70;;;;;;;13.33;66.70;101065.56;2118668;83;20137;-68
2022/08/11 00:24:04;;;;;;;8.93;6.70;;;;;;;13.33;66.16;101066.06;2104666;83;21632;-67
2022/08/11 00:27:06;;;;;;;11.53;7.45;;;;;;;13.29;66.50;101069.56;2107680;83;21004;-68
2022/08/11 00:30:11;;;;;;;8.65;7.12;;;;;;;13.24;66.66;101063.84;2072836;84;21069;-67
2022/08/11 00:33:12;;;;;;;8.85;7.30;;;;;;;13.13;66.69;101069.46;2110672;83;21043;-69
2022/08/11 00:36:20;;;;;;;10.48;7.15;;;;;;;13.09;66.91;101063.63;2081269;84;21518;-68
2022/08/11 00:39:23;;;;;;;10.82;6.72;;;;;;;13.03;67.09;101063.41;2114603;83;20978;-70
2022/08/11 00:42:42;;;;;;;9.60;6.05;;;;;;;12.97;67.18;101056.39;2110525;83;21028;-69
2022/08/11 00:46:07;;;;;;;10.80;7.00;;;;;;;12.93;67.39;101056.88;2108868;83;20992;-69
2022/08/11 00:49:31;;;;;;;8.53;5.72;;;;;;;12.82;67.49;101058.49;2107623;83;21052;-68
2022/08/11 00:53:27;;;;;;;7.03;5.53;;;;;;;12.76;67.39;101058.62;2104438;83;21897;-69
2022/08/11 00:57:24;;;;;;;10.68;7.35;;;;;;;12.70;67.25;101065.92;2097668;83;21014;-69
2022/08/11 01:00:33;;;;;;;9.05;6.42;;;;;;;12.63;67.63;101063.03;2107368;83;21008;-68
2022/08/11 01:04:28;;;;;;;11.68;6.20;;;;;;;12.56;67.51;101064.17;2109336;83;21064;-69
2022/08/11 01:08:07;;;;;;;13.53;7.62;;;;;;;12.58;67.53;101062.66;2109845;83;21024;-68
2022/08/11 01:11:42;;;;;;;11.53;8.20;;;;;;;12.59;67.66;101064.35;2071586;83;20997;-68
2022/08/11 01:15:16;;;;;;;9.75;6.10;;;;;;;12.59;67.86;101060.86;2100664;84;21567;-68
2022/08/11 01:18:59;;;;;;;9.20;6.28;;;;;;;12.56;67.57;101061.50;2067343;84;21045;-69
2022/08/11 01:22:26;;;;;;;10.75;6.22;;;;;;;12.54;67.68;101058.16;2095310;83;21468;-69
2022/08/11 01:26:01;;;;;;;9.23;5.70;;;;;;;12.48;67.33;101062.78;2100232;84;21060;-68
2022/08/11 01:29:40;;;;;;;13.60;7.10;;;;;;;12.42;67.36;101059.92;2075262;84;20982;-68
2022/08/11 01:33:20;;;;;;;9.58;6.70;;;;;;;12.31;67.46;101067.16;2097137;83;21017;-68
2022/08/11 01:37:07;;;;;;;12.07;7.30;;;;;;;12.28;67.76;101066.63;2102361;83;20970;-68
2022/08/11 01:40:41;;;;;;;8.45;6.40;;;;;;;12.24;67.94;101062.59;2080850;83;21322;-68
2022/08/11 01:48:04;;;;;;;11.55;7.42;;;;;;;12.21;67.79;101058.41;2100034;84;21073;-68
2022/08/11 01:51:56;;;;;;;11.53;7.00;;;;;;;12.23;67.94;101059.11;2051485;83;21033;-68
2022/08/11 01:55:18;;;;;;;8.23;5.92;;;;;;;12.20;68.03;101057.25;2094343;84;21014;-68
2022/08/11 01:58:46;;;;;;;12.30;6.62;;;;;;;12.14;67.85;101057.37;2101260;83;21075;-70
2022/08/11 02:02:46;;;;;;;12.90;6.85;;;;;;;12.05;68.37;101060.94;2101584;83;21021;-70
2022/08/11 02:06:53;;;;;;;9.97;6.90;;;;;;;11.98;68.24;101062.55;2100982;83;20976;-68
2022/08/11 02:09:19;;;;;;;11.38;6.42;;;;;;;11.91;68.65;101058.35;2096140;83;21021;-68
2022/08/11 02:12:44;;;;;;;11.60;7.33;;;;;;;11.89;68.71;101058.98;2095975;83;20989;-68
2022/08/11 02:15:50;;;;;;;9.38;6.70;;;;;;;11.92;68.89;101046.71;2103152;83;21037;-68
2022/08/11 02:26:37;;;;;;;7.35;5.92;;;;;;;11.87;68.44;101051.14;2100822;83;21504;-68
2022/08/11 02:29:50;;;;;;;8.08;6.00;;;;;;;11.80;68.62;101051.90;2101473;83;20998;-67
2022/08/11 02:33:23;;;;;;;11.22;6.10;;;;;;;11.73;68.43;101048.16;2105335;82;21499;-68
2022/08/11 02:36:30;;;;;;;8.70;6.45;;;;;;;11.69;68.55;101052.12;2102875;83;21682;-68
2022/08/11 02:39:40;;;;;;;9.10;6.83;;;;;;;11.60;68.39;101057.82;2099083;82;21068;-67
2022/08/11 02:42:50;;;;;;;8.20;6.37;;;;;;;11.54;68.73;101060.59;2101530;83;21055;-69
2022/08/11 02:46:17;;;;;;;6.53;5.62;;;;;;;11.52;68.94;101055.11;2107384;83;21024;-68
2022/08/11 02:49:54;;;;;;;8.80;6.25;;;;;;;11.49;68.69;101053.58;2097897;83;21031;-69
2022/08/11 02:53:23;;;;;;;6.95;5.78;;;;;;;11.44;68.83;101055.84;2086408;84;21335;-68
2022/08/11 02:56:50;;;;;;;8.15;5.78;;;;;;;11.38;69.04;101054.63;2087362;83;21633;-67
2022/08/11 03:00:00;;;;;;;10.13;5.47;;;;;;;11.35;69.02;101054.92;2089039;83;20978;-68
2022/08/11 03:03:16;;;;;;;6.55;4.97;;;;;;;11.34;68.84;101055.05;2067403;84;20993;-68
2022/08/11 03:06:37;;;;;;;9.35;4.95;;;;;;;11.26;68.79;101055.79;2064080;84;21093;-71
2022/08/11 03:09:46;;;;;;;9.40;4.95;;;;;;;11.22;68.70;101063.73;2064380;84;21011;-68
2022/08/11 03:16:56;;;;;;;6.70;4.90;;;;;;;11.21;69.09;101066.88;2104111;83;21167;-68
2022/08/11 03:20:31;;;;;;;7.22;5.60;;;;;;;11.13;69.08;101065.45;2076663;84;21088;-69
2022/08/11 03:24:05;;;;;;;12.68;5.90;;;;;;;11.14;69.03;101069.77;2103943;83;21016;-70
2022/08/11 03:27:15;;;;;;;9.78;5.53;;;;;;;11.11;69.52;101066.08;2098540;83;21544;-67
2022/08/11 03:30:25;;;;;;;9.93;5.62;;;;;;;11.11;69.13;101070.56;2091134;84;21559;-67
2022/08/11 03:44:47;;;;;;;7.55;5.40;;;;;;;10.67;69.13;101030.48;2105650;83;21032;-70
2022/08/11 03:48:09;;;;;;;5.65;4.97;;;;;;;10.84;69.30;101066.05;2101893;83;21137;-69
2022/08/11 03:51:30;;;;;;;6.53;4.53;;;;;;;10.82;69.43;101062.23;2090556;83;21444;-69
2022/08/11 03:54:44;;;;;;;;;;;;;;;10.76;69.30;101055.69;2104138;83;20975;-67
2022/08/11 03:58:33;;;;;;;8.60;5.97;;;;;;;10.76;69.70;101053.03;2098977;82;20301;-68
2022/08/11 04:01:46;;;;;;;6.53;4.90;;;;;;;10.87;70.25;101052.48;2094578;82;21482;-67
2022/08/11 04:05:35;;;;;;;6.55;5.70;;;;;;;10.99;69.86;101055.31;2060312;84;21030;-67
2022/08/11 04:08:47;;;;;;;8.43;6.22;;;;;;;11.24;70.12;101054.30;2046662;84;21020;-68
2022/08/11 04:12:37;;;;;;;6.42;5.33;;;;;;;11.66;70.36;101054.09;2047084;86;21089;-67
2022/08/11 04:16:03;;;;;;;6.50;5.20;;;;;;;12.16;70.13;101055.88;2019407;86;20995;-68
2022/08/11 04:19:45;;;;;;;9.68;5.47;;;;;;;12.63;69.77;101050.22;2079623;84;21088;-70
2022/08/11 04:23:25;;;;;;;5.17;4.55;;;;;;;13.23;69.69;101046.16;2043868;86;21036;-68
2022/08/11 04:26:46;;;;;;;6.17;5.40;;;;;;;13.78;68.67;101051.00;2048763;86;21096;-68
2022/08/11 04:30:16;;;;;;;6.28;5.12;;;;;;;14.22;68.19;101052.02;2080382;84;20984;-68
2022/08/11 04:34:00;;;;;;;5.53;4.70;;;;;;;14.67;67.51;101055.14;2079441;84;21036;-67
2022/08/11 04:37:33;;;;;;;6.05;4.50;;;;;;;15.09;66.79;101048.18;2081135;84;21346;-68
2022/08/11 04:40:54;;;;;;;7.85;4.75;;;;;;;15.60;66.52;101044.56;2043802;86;21022;-69
2022/08/11 04:44:28;;;;;;;8.95;4.25;;;;;;;16.17;65.94;101046.00;2044353;86;21111;-67
2022/08/11 05:03:40;;;;;;;5.75;3.85;;;;;;;19.03;62.01;101039.69;2077363;84;20992;-70
2022/08/11 05:07:22;;;;;;;6.60;4.10;;;;;;;19.60;61.03;101038.97;2076426;84;21104;-71
2022/08/11 05:10:41;;;;;;;5.40;3.65;;;;;;;20.17;60.19;101040.30;2112233;83;21058;-69
2022/08/11 05:34:57;;;;;;;5.55;3.65;;;;;;;22.95;54.28;101072.28;2095959;83;21547;-68
2022/08/11 05:58:23;;;;;;;4.92;3.47;;;;;;;23.79;49.99;101077.87;2095089;84;21056;-69
2022/08/11 06:01:29;;;;;;;3.87;3.50;;;;;;;23.99;49.58;101080.30;2096241;84;21116;-69
2022/08/11 06:04:31;;;;;;;3.80;3.35;;;;;;;24.21;48.71;101076.48;2096609;83;21469;-68
2022/08/11 06:07:33;;;;;;;4.47;3.35;;;;;;;24.30;48.58;101075.11;2100705;84;21013;-69
2022/08/11 06:10:38;;;;;;;5.58;3.42;;;;;;;24.27;48.93;101081.51;2095680;84;20963;-69
2022/08/11 06:13:45;;;;;;;4.95;3.12;;;;;;;24.52;48.16;101095.70;2096520;84;21032;-69
2022/08/11 06:16:54;;;;;;;5.45;2.80;;;;;;;24.63;48.34;101091.88;2095701;84;21318;-69
2022/08/11 06:20:02;;;;;;;4.20;3.10;;;;;;;24.95;48.23;101089.62;2097670;83;21093;-69
2022/08/11 06:23:08;;;;;;;3.65;2.90;;;;;;;25.45;48.00;101090.38;2095280;84;21029;-70
2022/08/11 06:26:11;;;;;;;7.12;2.60;;;;;;;25.86;47.69;101082.50;2097048;84;21437;-69
2022/08/11 06:29:17;;;;;;;4.22;2.92;;;;;;;26.00;46.85;101084.37;2094963;84;20993;-69
2022/08/11 06:32:19;;;;;;;4.42;2.47;;;;;;;25.61;45.48;101080.64;2094321;84;21096;-68
2022/08/11 06:35:35;;;;;;;4.33;3.00;;;;;;;25.45;45.83;101084.95;2095471;84;20997;-69
2022/08/11 06:39:16;;;;;;;5.60;2.67;;;;;;;25.49;46.12;101080.16;2098041;84;21052;-69
2022/08/11 06:42:44;;;;;;;3.65;2.20;;;;;;;25.94;46.29;101076.66;2022918;86;21052;-71
2022/08/11 06:46:06;;;;;;;3.20;2.87;;;;;;;26.45;45.39;101077.20;2049356;85;21010;-69
2022/08/11 06:52:16;;;;;;;5.87;2.62;;;;;;;27.72;44.41;101061.66;2038501;85;21594;-71
2022/08/11 07:02:24;;;;;;;5.50;2.40;;;;;;;27.87;42.55;101060.99;2030360;86;21013;-69
2022/08/11 07:05:45;;;;;;;2.80;2.33;;;;;;;28.11;42.67;101060.12;2032007;87;21074;-69
2022/08/11 07:16:02;;;;;;;3.45;1.98;;;;;;;27.89;41.07;101060.20;2035158;86;21040;-70
2022/08/11 07:29:13;;;;;;;2.30;2.10;;;;;;;27.81;38.92;101053.30;1968520;89;21608;-70
2022/08/11 07:32:25;;;;;;;4.35;2.30;;;;;;;27.81;39.06;101051.95;2001388;85;21046;-71
2022/08/11 07:35:37;;;;;;;4.67;2.30;;;;;;;27.84;39.13;101053.33;2055334;85;21683;-68
2022/08/11 07:38:50;;;;;;;2.27;2.08;;;;;;;27.60;37.80;101048.73;2055685;85;21079;-70
2022/08/11 07:41:55;;;;;;;4.25;2.17;;;;;;;27.35;38.35;101047.93;2029331;85;21543;-70
2022/08/11 07:55:08;;;;;;;3.62;2.12;;;;;;;27.31;37.71;101053.59;2039039;86;21085;-70
2022/08/11 08:18:13;;;;;;;6.75;1.95;;;;;;;27.20;37.29;101042.59;2053881;85;20108;-69
2022/08/11 08:21:15;;;;;;;3.00;2.02;;;;;;;26.97;37.08;101035.45;2051190;85;21562;-69
2022/08/11 08:24:21;;;;;;;6.33;1.82;;;;;;;26.70;37.08;101035.41;2055554;85;21420;-70
2022/08/11 08:27:25;;;;;;;2.05;1.85;;;;;;;26.74;37.24;101038.44;2050939;85;21022;-69
2022/08/11 08:30:49;;;;;;;5.53;2.17;;;;;;;26.75;35.96;101036.84;2056135;85;21060;-70
2022/08/11 08:33:51;;;;;;;2.90;1.70;;;;;;;26.57;36.61;101043.38;2049205;85;21036;-71
2022/08/11 08:36:52;;;;;;;4.97;1.80;;;;;;;26.88;37.60;101035.62;2048341;85;21115;-72
2022/08/11 08:39:54;;;;;;;5.83;2.00;;;;;;;26.85;36.45;101028.51;2047580;85;21617;-70
2022/08/11 08:43:00;;;;;;;4.87;2.08;;;;;;;27.02;35.99;101026.54;2036298;86;21645;-70
2022/08/11 08:46:05;;;;;;;8.60;1.90;;;;;;;27.34;35.68;101015.78;2032969;86;21060;-69
2022/08/11 08:49:08;;;;;;;5.35;1.82;;;;;;;27.21;35.78;101025.70;2041517;85;21072;-70
2022/08/11 08:52:12;;;;;;;2.25;1.60;;;;;;;27.19;36.07;101016.41;2045349;85;21096;-70
2022/08/11 08:55:18;;;;;;;1.67;1.50;;;;;;;26.88;34.89;101022.02;2038418;86;21030;-70
2022/08/11 08:58:21;;;;;;;2.08;1.92;;;;;;;26.64;35.52;101016.00;2073292;84;21105;-69
2022/08/11 09:01:24;;;;;;;3.02;1.82;;;;;;;26.75;35.38;101016.42;2068875;84;21461;-69
2022/08/11 09:04:27;;;;;;;3.50;1.52;;;;;;;26.64;35.37;101006.48;2071142;84;21000;-68
2022/08/11 09:07:28;;;;;;;3.10;1.80;;;;;;;26.14;35.24;101010.90;2059539;85;21606;-73
2022/08/11 09:10:30;;;;;;;3.35;1.35;;;;;;;26.05;35.77;101012.40;2054477;85;21029;-70
2022/08/11 09:13:33;;;;;;;1.75;1.32;;;;;;;26.13;35.02;101006.55;2055550;85;21055;-69
2022/08/11 09:16:38;;;;;;;3.75;1.50;;;;;;;25.88;35.65;101002.88;2039890;86;21068;-69
2022/08/11 09:19:40;;;;;;;3.98;1.57;;;;;;;25.60;35.91;101012.43;2038814;86;21525;-69
2022/08/11 09:29:26;;;;;;;4.03;1.52;;;;;;;25.62;35.78;101006.20;2044938;85;21091;-69
2022/08/11 09:32:30;;;;;;;1.85;1.20;;;;;;;25.29;35.79;101008.34;2065667;85;21072;-69
2022/08/11 09:35:35;;;;;;;1.50;1.20;;;;;;;25.37;36.22;101003.34;2067977;85;21001;-69
2022/08/11 09:42:01;;;;;;;1.30;1.20;;;;;;;25.42;37.00;100996.61;2072269;85;21021;-69
2022/08/11 09:45:04;;;;;;;2.58;1.50;;;;;;;25.84;35.23;101004.44;2075879;85;21053;-70
2022/08/11 09:48:08;;;;;;;0.98;0.90;;;;;;;26.04;35.64;101005.30;2078514;85;21049;-69
2022/08/11 09:51:11;;;;;;;1.92;1.10;;;;;;;26.00;34.49;101004.70;2079042;85;20989;-69
2022/08/11 09:54:15;;;;;;;3.83;1.77;;;;;;;25.54;34.38;101003.88;2040800;86;21647;-69
2022/08/11 10:00:44;;;;;;;1.22;1.12;;;;;;;25.66;35.31;100988.34;2073855;85;21073;-69
2022/08/11 10:03:46;;;;;;;1.85;1.20;;;;;;;25.43;35.56;100996.10;2034281;85;22199;-69
2022/08/11 10:07:00;;;;;;;2.20;1.00;;;;;;;25.72;35.33;100978.66;2075436;85;20985;-70
2022/08/11 10:10:05;;;;;;;1.70;1.10;;;;;;;26.08;34.96;100985.25;2027707;86;21073;-70
2022/08/11 10:13:17;;;;;;;1.27;1.05;;;;;;;26.33;34.11;100984.26;2045908;86;21065;-70
2022/08/11 10:16:20;;;;;;;1.35;1.25;;;;;;;25.77;33.04;100976.58;2076863;85;22289;-70
2022/08/11 10:19:22;;;;;;;1.42;1.32;;;;;;;25.38;33.58;100972.37;2040239;86;21058;-69
2022/08/11 10:33:59;;;;;;;6.85;1.37;;;;;;;26.42;34.43;100959.34;2042278;87;21045;-69
2022/08/11 10:35:31;;;;;;;2.83;1.42;;;;;;;26.85;32.86;100948.20;2076001;84;21093;-71
2022/08/11 10:38:34;;;;;;;3.77;1.27;;;;;;;26.96;32.83;100949.95;2079579;84;21012;-73
2022/08/11 10:44:58;;;;;;;4.72;1.20;;;;;;;26.93;32.37;100954.55;2035494;85;22294;-69
2022/08/11 10:47:59;;;;;;;2.98;1.40;;;;;;;26.93;31.89;100955.91;2045443;86;21021;-69
2022/08/11 10:51:13;;;;;;;3.30;1.20;;;;;;;26.97;32.44;100948.32;2036336;86;21360;-69
2022/08/11 11:00:57;;;;;;;;;;;;;;;27.19;31.08;100952.94;2032067;85;21009;-70
2022/08/11 11:04:10;;;;;;;4.85;1.50;;;;;;;27.05;30.91;100947.87;2051155;86;20208;-71
2022/08/11 11:07:16;;;;;;;3.90;1.30;;;;;;;26.39;31.76;100953.86;2049044;86;21623;-70
2022/08/11 11:10:18;;;;;;;1.45;1.35;;;;;;;26.47;32.80;100940.34;2051265;86;21088;-71
2022/08/11 11:20:05;;;;;;;3.35;1.47;;;;;;;26.94;32.63;100933.05;2052324;85;21065;-71
2022/08/11 11:23:21;;;;;;;3.85;1.52;;;;;;;27.20;33.01;100928.70;2049332;86;21120;-71
2022/08/11 11:26:56;;;;;;;5.08;1.20;;;;;;;26.83;32.73;100927.50;2050442;85;21517;-70
2022/08/11 11:30:07;;;;;;;1.98;1.27;;;;;;;26.21;32.67;100935.11;2037100;86;21017;-70
2022/08/11 11:33:26;;;;;;;2.95;1.22;;;;;;;26.57;33.48;100926.91;2040751;85;21033;-70
2022/08/11 11:36:44;;;;;;;2.90;1.40;;;;;;;27.00;32.06;100915.67;2027045;86;21013;-70
2022/08/11 11:39:46;;;;;;;1.67;1.52;;;;;;;27.30;32.67;100915.73;2044721;86;21516;-71
2022/08/11 11:42:51;;;;;;;1.92;1.40;;;;;;;27.64;33.48;100913.00;2074842;84;21061;-74
2022/08/11 11:45:52;;;;;;;2.35;1.20;;;;;;;27.44;31.92;100914.22;2031841;86;21095;-74
2022/08/11 11:48:55;;;;;;;4.17;1.30;;;;;;;26.87;32.16;100906.57;2054521;85;20996;-72
2022/08/11 11:51:58;;;;;;;4.50;1.50;;;;;;;26.30;32.97;100900.95;2055528;85;21083;-70
2022/08/11 11:55:01;;;;;;;3.52;1.35;;;;;;;26.04;33.48;100897.07;2055283;85;20974;-71
2022/08/11 12:01:25;;;;;;;3.05;1.30;;;;;;;26.56;33.00;100899.42;2037775;85;21081;-70
2022/08/11 12:04:48;;;;;;;2.05;1.60;;;;;;;26.86;33.56;100890.75;2043483;86;21002;-70
2022/08/11 12:14:32;;;;;;;1.90;1.27;;;;;;;26.76;32.76;100887.39;2132705;82;21040;-71
2022/08/11 12:17:35;;;;;;;1.55;1.20;;;;;;;26.79;32.68;100880.63;2099707;84;20993;-71
2022/08/11 12:20:37;;;;;;;4.03;1.47;;;;;;;26.90;32.96;100876.11;2132013;82;21523;-71
2022/08/11 12:30:19;;;;;;;1.45;1.27;;;;;;;27.11;31.39;100873.84;2134986;82;21520;-69
2022/08/11 12:33:21;;;;;;;1.57;1.07;;;;;;;27.04;30.88;100868.62;2099137;84;21484;-71
2022/08/11 12:36:23;;;;;;;1.42;1.05;;;;;;;27.09;30.61;100851.52;2128577;82;21057;-71
2022/08/11 12:46:26;;;;;;;4.22;1.30;;;;;;;27.59;30.98;100843.45;2101216;84;20989;-69
2022/08/11 12:52:55;;;;;;;2.72;1.57;;;;;;;27.39;30.95;100841.96;2104898;84;21500;-70
2022/08/11 13:06:08;;;;;;;2.33;1.42;;;;;;;26.60;32.04;100829.23;2126414;82;21534;-69
2022/08/11 13:09:11;;;;;;;2.47;1.20;;;;;;;26.46;32.25;100836.67;2081548;84;21002;-69
2022/08/11 13:15:35;;;;;;;1.72;1.50;;;;;;;26.44;32.56;100823.86;2080262;84;21009;-70
2022/08/11 13:18:41;;;;;;;4.08;1.40;;;;;;;26.46;32.36;100821.71;2081157;85;21001;-70
2022/08/11 13:21:45;;;;;;;4.20;1.42;;;;;;;26.48;32.41;100819.56;2121316;83;21851;-70
2022/08/11 13:24:48;;;;;;;4.95;1.60;;;;;;;26.60;32.64;100812.09;2123756;82;21473;-70
2022/08/11 13:27:52;;;;;;;1.75;1.27;;;;;;;26.72;32.73;100810.06;2111477;83;21057;-70
2022/08/11 13:34:10;;;;;;;3.10;1.27;;;;;;;26.63;31.78;100800.70;2072403;84;21531;-70
2022/08/11 13:37:16;;;;;;;1.50;1.37;;;;;;;26.66;31.92;100800.72;2110688;83;20994;-70
2022/08/11 13:40:21;;;;;;;2.83;1.40;;;;;;;26.70;32.05;100797.23;2123192;82;21074;-70
2022/08/11 13:43:24;;;;;;;1.62;1.25;;;;;;;26.81;31.66;100796.80;2111018;83;21466;-71
2022/08/11 13:46:27;;;;;;;1.82;1.40;;;;;;;26.92;32.27;100790.88;2091245;83;21029;-70
2022/08/11 13:49:35;;;;;;;3.30;1.60;;;;;;;26.89;32.30;100794.97;2111433;83;21461;-71
2022/08/11 13:52:39;;;;;;;1.35;1.22;;;;;;;26.57;32.51;100793.56;2123040;82;21042;-70
2022/08/11 13:55:42;;;;;;;5.85;1.70;;;;;;;26.57;32.99;100784.03;2093951;83;21085;-71
2022/08/11 13:58:43;;;;;;;2.77;1.85;;;;;;;26.60;32.64;100778.08;2081591;84;21017;-71
2022/08/11 14:01:49;;;;;;;2.02;1.67;;;;;;;26.69;33.15;100780.61;2102704;82;21081;-70
2022/08/11 14:04:59;;;;;;;3.15;1.35;;;;;;;26.58;32.00;100770.70;2124541;82;21116;-70
2022/08/11 14:08:08;;;;;;;4.07;1.47;;;;;;;26.47;32.73;100767.56;2114723;83;21124;-73
2022/08/11 14:14:34;;;;;;;3.47;1.50;;;;;;;26.15;31.77;100768.32;2116642;83;21069;-74
2022/08/11 14:17:38;;;;;;;3.17;1.25;;;;;;;25.93;32.20;100768.33;2082024;84;21113;-69
2022/08/11 14:24:03;;;;;;;1.35;1.07;;;;;;;25.39;32.79;100768.93;2115984;83;21112;-69
2022/08/11 14:27:08;;;;;;;5.62;1.42;;;;;;;25.17;32.90;100759.91;2094357;84;20961;-70
2022/08/11 14:30:54;;;;;;;1.15;1.00;;;;;;;25.22;33.13;100755.91;2113427;83;21468;-69
2022/08/11 14:33:15;;;;;;;3.65;1.27;;;;;;;25.49;33.32;100750.07;2059989;84;21627;-70
2022/08/11 14:36:17;;;;;;;3.12;1.12;;;;;;;25.79;33.27;100750.20;2115543;83;21041;-70
2022/08/11 14:39:25;;;;;;;2.83;1.30;;;;;;;26.02;33.64;100741.00;2115067;83;21034;-70
2022/08/11 14:49:06;;;;;;;2.98;1.32;;;;;;;26.27;32.29;100754.58;2084318;84;20998;-70
2022/08/11 14:52:14;;;;;;;4.05;1.42;;;;;;;26.04;31.91;100753.78;2114405;83;21040;-69
2022/08/11 14:58:37;;;;;;;6.08;1.42;;;;;;;25.67;32.06;100744.05;2080362;84;21062;-70
2022/08/11 15:05:01;;;;;;;2.37;1.20;;;;;;;25.56;32.64;100749.06;2079765;84;21053;-70
2022/08/11 15:08:02;;;;;;;3.17;1.07;;;;;;;25.63;32.85;100751.08;2124843;83;21484;-71
2022/08/11 15:12:07;;;;;;;1.80;1.25;;;;;;;25.62;32.32;100745.34;2127509;83;21017;-71
2022/08/11 15:14:09;;;;;;;1.95;1.30;;;;;;;25.53;31.76;100738.16;2129742;82;20981;-74
2022/08/11 15:17:11;;;;;;;10.95;1.65;;;;;;;25.47;32.59;100742.70;2104374;84;21572;-69
2022/08/11 15:37:26;;;;;;;5.40;1.30;;;;;;;25.17;32.22;100736.83;2138456;82;21001;-70
2022/08/11 15:47:18;;;;;;;3.08;1.60;;;;;;;25.13;32.63;100741.09;2128791;82;21060;-72
2022/08/11 15:50:20;;;;;;;4.05;1.22;;;;;;;25.13;32.91;100735.12;2134780;81;20994;-72
2022/08/11 15:53:30;;;;;;;1.47;1.30;;;;;;;25.12;32.87;100734.03;2130847;82;21063;-70
2022/08/11 15:56:35;;;;;;;1.95;1.17;;;;;;;25.13;33.15;100741.09;2103664;84;21064;-68
2022/08/11 16:05:56;;;;;;;1.37;1.27;;;;;;;25.02;32.56;100743.63;2130318;82;21043;-70
2022/08/11 16:09:03;;;;;;;2.33;1.60;;;;;;;24.98;32.64;100743.03;2130570;82;20940;-70
2022/08/11 16:12:09;;;;;;;6.22;2.22;;;;;;;24.94;32.67;100744.05;2128716;82;20948;-70
2022/08/11 16:18:47;;;;;;;6.47;1.20;;;;;;;24.87;32.17;100743.94;2098054;84;21606;-70
2022/08/11 16:21:50;;;;;;;2.50;1.75;;;;;;;24.89;31.94;100746.70;2097750;84;20976;-69
2022/08/11 16:24:52;;;;;;;3.55;1.50;;;;;;;24.88;32.23;100738.80;2097247;83;21502;-73
2022/08/11 16:27:59;;;;;;;5.12;1.87;;;;;;;24.91;32.59;100740.47;2137909;81;21485;-70
2022/08/11 16:31:01;;;;;;;3.33;1.32;;;;;;;24.97;32.81;100744.91;2139294;81;21031;-69
2022/08/11 16:38:32;;;;;;;6.60;1.35;;;;;;;24.96;33.07;100750.05;2130032;82;21028;-70
2022/08/11 16:40:29;;;;;;;11.12;1.40;;;;;;;24.27;37.82;100781.88;2127939;82;20978;-70
2022/08/11 16:47:00;;;;;;;4.28;1.40;;;;;;;23.21;40.67;100809.08;2136979;81;21099;-70
2022/08/11 16:50:02;;;;;;;4.70;1.40;;;;;;;22.69;42.33;100819.61;2096990;84;21023;-69
2022/08/11 16:53:04;;;;;;;9.98;1.45;;;;;;;22.26;42.60;100829.53;2109690;82;21004;-68
2022/08/11 16:56:08;;;;;;;6.67;1.40;;;;;;;21.83;43.42;100811.50;2136387;82;21024;-69
2022/08/11 16:59:19;;;;;;;3.20;1.30;;;;;;;21.56;44.10;100823.61;2103602;84;21467;-69
2022/08/11 17:16:06;;;;;;;3.60;1.47;;;;;;;20.99;46.72;100800.17;2141267;81;21073;-72
2022/08/11 17:19:15;;;;;;;2.02;1.35;;;;;;;20.98;47.13;100802.58;2098651;84;20967;-69
2022/08/11 17:25:40;;;;;;;3.00;1.30;;;;;;;20.99;47.28;100789.91;2134438;81;21016;-69
2022/08/11 17:28:43;;;;;;;5.30;1.65;;;;;;;21.03;47.36;100789.27;2135389;81;21067;-69
2022/08/11 17:35:32;;;;;;;1.17;1.10;;;;;;;21.08;47.17;100786.42;2137542;81;21110;-70
2022/08/11 17:38:35;;;;;;;4.55;1.10;;;;;;;21.07;47.34;100790.17;2137566;82;20985;-70
2022/08/11 17:48:25;;;;;;;3.45;1.40;;;;;;;21.02;47.70;100784.89;2097410;84;21336;-69
2022/08/11 18:01:34;;;;;;;2.20;1.50;;;;;;;20.92;47.71;100778.33;2135191;81;22546;-69
2022/08/11 18:04:36;;;;;;;1.67;1.10;;;;;;;20.90;47.65;100777.22;2132518;82;21016;-69
